sensor_id;sensor_type;location;lat;lon;timestamp;temperature;humidity
48162;DHT22;33950;48.154;16.316;2022-12-10T00:00:00;3.80;99.90
48162;DHT22;33950;48.154;16.316;2022-12-10T00:02:46;3.80;99.90
48162;DHT22;33950;48.154;16.316;2022-12-10T00:05:35;3.70;99.90
48162;DHT22;33950;48.154;16.316;2022-12-10T00:08:21;3.70;99.90
48162;DHT22;33950;48.154;16.316;2022-12-10T00:11:08;3.70;99.90
48162;DHT22;33950;48.154;16.316;2022-12-10T00:13:55;3.70;99.90
48162;DHT22;33950;48.154;16.316;2022-12-10T00:16:41;3.70;99.90
48162;DHT22;33950;48.154;16.316;2022-12-10T00:19:27;3.50;99.90
48162;DHT22;33950;48.154;16.316;2022-12-10T00:22:14;3.60;99.90
48162;DHT22;33950;48.154;16.316;2022-12-10T00:25:01;3.60;99.90
48162;DHT22;33950;48.154;16.316;2022-12-10T00:27:47;3.60;99.90
48162;DHT22;33950;48.154;16.316;2022-12-10T00:30:33;3.60;99.90
48162;DHT22;33950;48.154;16.316;2022-12-10T00:33:20;3.60;99.90
48162;DHT22;33950;48.154;16.316;2022-12-10T00:36:08;3.60;99.90
48162;DHT22;33950;48.154;16.316;2022-12-10T00:38:57;3.60;99.90
48162;DHT22;33950;48.154;16.316;2022-12-10T00:41:43;3.60;99.90
48162;DHT22;33950;48.154;16.316;2022-12-10T00:44:29;3.60;99.90
48162;DHT22;33950;48.154;16.316;2022-12-10T00:47:15;3.50;99.90
48162;DHT22;33950;48.154;16.316;2022-12-10T00:50:02;3.50;99.90
48162;DHT22;33950;48.154;16.316;2022-12-10T00:52:48;3.60;99.90
48162;DHT22;33950;48.154;16.316;2022-12-10T00:55:35;3.70;99.90
48162;DHT22;33950;48.154;16.316;2022-12-10T00:58:22;3.70;99.90
48162;DHT22;33950;48.154;16.316;2022-12-10T01:01:13;3.60;99.90
48162;DHT22;33950;48.154;16.316;2022-12-10T01:04:01;3.60;99.90
48162;DHT22;33950;48.154;16.316;2022-12-10T01:06:49;3.50;99.90
48162;DHT22;33950;48.154;16.316;2022-12-10T01:09:36;3.40;99.90
48162;DHT22;33950;48.154;16.316;2022-12-10T01:12:23;3.50;99.90
48162;DHT22;33950;48.154;16.316;2022-12-10T01:15:09;3.60;99.90
48162;DHT22;33950;48.154;16.316;2022-12-10T01:17:55;3.60;99.90
48162;DHT22;33950;48.154;16.316;2022-12-10T01:20:41;3.60;99.90
48162;DHT22;33950;48.154;16.316;2022-12-10T01:23:28;3.60;99.90
48162;DHT22;33950;48.154;16.316;2022-12-10T01:26:15;3.50;99.90
48162;DHT22;33950;48.154;16.316;2022-12-10T01:29:04;3.70;99.90
48162;DHT22;33950;48.154;16.316;2022-12-10T01:31:51;3.80;99.90
48162;DHT22;33950;48.154;16.316;2022-12-10T01:34:37;3.80;99.90
48162;DHT22;33950;48.154;16.316;2022-12-10T01:37:23;3.80;99.90
48162;DHT22;33950;48.154;16.316;2022-12-10T01:40:10;3.80;99.90
48162;DHT22;33950;48.154;16.316;2022-12-10T01:42:57;3.90;99.90
48162;DHT22;33950;48.154;16.316;2022-12-10T01:45:44;4.10;99.90
48162;DHT22;33950;48.154;16.316;2022-12-10T01:48:30;4.20;99.90
48162;DHT22;33950;48.154;16.316;2022-12-10T01:51:17;4.30;99.90
48162;DHT22;33950;48.154;16.316;2022-12-10T01:54:07;4.30;99.90
48162;DHT22;33950;48.154;16.316;2022-12-10T01:56:58;4.40;99.90
48162;DHT22;33950;48.154;16.316;2022-12-10T01:59:47;4.50;99.90
48162;DHT22;33950;48.154;16.316;2022-12-10T02:02:42;4.50;99.90
48162;DHT22;33950;48.154;16.316;2022-12-10T02:05:34;4.40;99.90
48162;DHT22;33950;48.154;16.316;2022-12-10T02:08:26;4.40;99.90
48162;DHT22;33950;48.154;16.316;2022-12-10T02:11:16;4.40;99.90
48162;DHT22;33950;48.154;16.316;2022-12-10T02:14:09;4.30;99.90
48162;DHT22;33950;48.154;16.316;2022-12-10T02:16:59;4.10;99.90
48162;DHT22;33950;48.154;16.316;2022-12-10T02:20:02;4.00;99.90
48162;DHT22;33950;48.154;16.316;2022-12-10T02:22:51;4.00;99.90
48162;DHT22;33950;48.154;16.316;2022-12-10T02:25:45;4.00;99.90
48162;DHT22;33950;48.154;16.316;2022-12-10T02:28:36;4.00;99.90
48162;DHT22;33950;48.154;16.316;2022-12-10T02:31:28;4.10;99.90
48162;DHT22;33950;48.154;16.316;2022-12-10T02:34:17;4.10;99.90
48162;DHT22;33950;48.154;16.316;2022-12-10T02:37:07;4.10;99.90
48162;DHT22;33950;48.154;16.316;2022-12-10T02:39:57;4.10;99.90
48162;DHT22;33950;48.154;16.316;2022-12-10T02:42:47;4.10;99.90
48162;DHT22;33950;48.154;16.316;2022-12-10T02:45:35;4.10;99.90
48162;DHT22;33950;48.154;16.316;2022-12-10T02:48:23;4.10;99.90
48162;DHT22;33950;48.154;16.316;2022-12-10T02:51:09;4.20;99.90
48162;DHT22;33950;48.154;16.316;2022-12-10T02:54:00;4.20;99.90
48162;DHT22;33950;48.154;16.316;2022-12-10T02:56:54;4.20;99.90
48162;DHT22;33950;48.154;16.316;2022-12-10T02:59:50;4.20;99.90
48162;DHT22;33950;48.154;16.316;2022-12-10T03:05:53;4.20;99.90
48162;DHT22;33950;48.154;16.316;2022-12-10T03:08:47;4.30;99.90
48162;DHT22;33950;48.154;16.316;2022-12-10T03:11:35;4.40;99.90
48162;DHT22;33950;48.154;16.316;2022-12-10T03:14:25;4.30;99.90
48162;DHT22;33950;48.154;16.316;2022-12-10T03:17:14;4.30;99.90
48162;DHT22;33950;48.154;16.316;2022-12-10T03:20:02;4.10;99.90
48162;DHT22;33950;48.154;16.316;2022-12-10T03:22:51;4.10;99.90
48162;DHT22;33950;48.154;16.316;2022-12-10T03:25:37;4.00;99.90
48162;DHT22;33950;48.154;16.316;2022-12-10T03:28:26;4.00;99.90
48162;DHT22;33950;48.154;16.316;2022-12-10T03:31:13;4.00;99.90
48162;DHT22;33950;48.154;16.316;2022-12-10T03:33:59;4.00;99.90
48162;DHT22;33950;48.154;16.316;2022-12-10T03:36:46;3.90;99.90
48162;DHT22;33950;48.154;16.316;2022-12-10T03:39:34;4.00;99.90
48162;DHT22;33950;48.154;16.316;2022-12-10T03:42:21;4.00;99.90
48162;DHT22;33950;48.154;16.316;2022-12-10T03:45:08;4.00;99.90
48162;DHT22;33950;48.154;16.316;2022-12-10T03:47:54;4.00;99.90
48162;DHT22;33950;48.154;16.316;2022-12-10T03:50:40;4.10;99.90
48162;DHT22;33950;48.154;16.316;2022-12-10T03:53:26;4.10;99.90
48162;DHT22;33950;48.154;16.316;2022-12-10T03:56:15;4.20;99.90
48162;DHT22;33950;48.154;16.316;2022-12-10T03:59:01;4.30;99.90
48162;DHT22;33950;48.154;16.316;2022-12-10T04:01:47;4.30;99.90
48162;DHT22;33950;48.154;16.316;2022-12-10T04:04:33;4.20;99.90
48162;DHT22;33950;48.154;16.316;2022-12-10T04:07:20;4.30;99.90
48162;DHT22;33950;48.154;16.316;2022-12-10T04:10:06;4.20;99.90
48162;DHT22;33950;48.154;16.316;2022-12-10T04:12:54;4.30;99.90
48162;DHT22;33950;48.154;16.316;2022-12-10T04:15:59;4.20;99.90
48162;DHT22;33950;48.154;16.316;2022-12-10T04:19:05;4.20;99.90
48162;DHT22;33950;48.154;16.316;2022-12-10T04:21:51;4.30;99.90
48162;DHT22;33950;48.154;16.316;2022-12-10T04:24:56;4.30;99.90
48162;DHT22;33950;48.154;16.316;2022-12-10T04:28:02;4.30;99.90
48162;DHT22;33950;48.154;16.316;2022-12-10T04:30:48;4.40;99.90
48162;DHT22;33950;48.154;16.316;2022-12-10T04:33:34;4.40;99.90
48162;DHT22;33950;48.154;16.316;2022-12-10T04:36:20;4.50;99.90
48162;DHT22;33950;48.154;16.316;2022-12-10T04:39:06;4.40;99.90
48162;DHT22;33950;48.154;16.316;2022-12-10T04:41:53;4.50;99.90
48162;DHT22;33950;48.154;16.316;2022-12-10T04:44:40;4.50;99.90
48162;DHT22;33950;48.154;16.316;2022-12-10T04:47:26;4.60;99.90
48162;DHT22;33950;48.154;16.316;2022-12-10T04:50:12;4.60;99.90
48162;DHT22;33950;48.154;16.316;2022-12-10T04:52:58;4.70;99.90
48162;DHT22;33950;48.154;16.316;2022-12-10T04:55:44;4.80;99.90
48162;DHT22;33950;48.154;16.316;2022-12-10T04:58:31;4.90;99.90
48162;DHT22;33950;48.154;16.316;2022-12-10T05:01:18;4.80;99.90
48162;DHT22;33950;48.154;16.316;2022-12-10T05:04:06;4.80;99.90
48162;DHT22;33950;48.154;16.316;2022-12-10T05:06:53;4.80;99.90
48162;DHT22;33950;48.154;16.316;2022-12-10T05:09:39;4.80;99.90
48162;DHT22;33950;48.154;16.316;2022-12-10T05:12:25;4.80;99.90
48162;DHT22;33950;48.154;16.316;2022-12-10T05:15:11;4.90;99.90
48162;DHT22;33950;48.154;16.316;2022-12-10T05:17:58;4.90;99.90
48162;DHT22;33950;48.154;16.316;2022-12-10T05:20:44;4.90;99.90
48162;DHT22;33950;48.154;16.316;2022-12-10T05:23:31;5.00;99.90
48162;DHT22;33950;48.154;16.316;2022-12-10T05:26:19;5.00;99.90
48162;DHT22;33950;48.154;16.316;2022-12-10T05:29:06;4.90;99.90
48162;DHT22;33950;48.154;16.316;2022-12-10T05:31:52;5.00;99.90
48162;DHT22;33950;48.154;16.316;2022-12-10T05:34:39;5.00;99.90
48162;DHT22;33950;48.154;16.316;2022-12-10T05:37:25;5.10;99.90
48162;DHT22;33950;48.154;16.316;2022-12-10T05:40:12;5.10;99.90
48162;DHT22;33950;48.154;16.316;2022-12-10T05:42:59;5.00;99.90
48162;DHT22;33950;48.154;16.316;2022-12-10T05:45:45;4.90;99.90
48162;DHT22;33950;48.154;16.316;2022-12-10T05:48:33;4.80;99.90
48162;DHT22;33950;48.154;16.316;2022-12-10T05:51:23;4.80;99.90
48162;DHT22;33950;48.154;16.316;2022-12-10T05:54:09;4.80;99.90
48162;DHT22;33950;48.154;16.316;2022-12-10T05:56:56;4.80;99.90
48162;DHT22;33950;48.154;16.316;2022-12-10T05:59:42;4.70;99.90
48162;DHT22;33950;48.154;16.316;2022-12-10T06:02:28;4.70;99.90
48162;DHT22;33950;48.154;16.316;2022-12-10T06:05:15;4.80;99.90
48162;DHT22;33950;48.154;16.316;2022-12-10T06:08:02;4.70;99.90
48162;DHT22;33950;48.154;16.316;2022-12-10T06:10:49;4.60;99.90
48162;DHT22;33950;48.154;16.316;2022-12-10T06:13:35;4.60;99.90
48162;DHT22;33950;48.154;16.316;2022-12-10T06:16:22;4.70;99.90
48162;DHT22;33950;48.154;16.316;2022-12-10T06:19:08;4.60;99.90
48162;DHT22;33950;48.154;16.316;2022-12-10T06:21:54;4.50;99.90
48162;DHT22;33950;48.154;16.316;2022-12-10T06:24:42;4.50;99.90
48162;DHT22;33950;48.154;16.316;2022-12-10T06:27:29;4.40;99.90
48162;DHT22;33950;48.154;16.316;2022-12-10T06:30:16;4.40;99.90
48162;DHT22;33950;48.154;16.316;2022-12-10T06:33:02;4.40;99.90
48162;DHT22;33950;48.154;16.316;2022-12-10T06:35:48;4.30;99.90
48162;DHT22;33950;48.154;16.316;2022-12-10T06:38:35;4.30;99.90
48162;DHT22;33950;48.154;16.316;2022-12-10T06:41:23;4.20;99.90
48162;DHT22;33950;48.154;16.316;2022-12-10T06:44:09;4.20;99.90
48162;DHT22;33950;48.154;16.316;2022-12-10T06:46:55;4.20;99.90
48162;DHT22;33950;48.154;16.316;2022-12-10T06:49:42;4.20;99.90
48162;DHT22;33950;48.154;16.316;2022-12-10T06:52:28;4.20;99.90
48162;DHT22;33950;48.154;16.316;2022-12-10T06:55:14;4.20;99.90
48162;DHT22;33950;48.154;16.316;2022-12-10T06:58:01;4.20;99.90
48162;DHT22;33950;48.154;16.316;2022-12-10T07:00:47;4.20;99.90
48162;DHT22;33950;48.154;16.316;2022-12-10T07:03:33;4.20;99.90
48162;DHT22;33950;48.154;16.316;2022-12-10T07:06:20;4.20;99.90
48162;DHT22;33950;48.154;16.316;2022-12-10T07:09:06;4.30;99.90
48162;DHT22;33950;48.154;16.316;2022-12-10T07:11:52;4.40;99.90
48162;DHT22;33950;48.154;16.316;2022-12-10T07:14:40;4.40;99.90
48162;DHT22;33950;48.154;16.316;2022-12-10T07:17:26;4.50;99.90
48162;DHT22;33950;48.154;16.316;2022-12-10T07:20:12;4.50;99.90
48162;DHT22;33950;48.154;16.316;2022-12-10T07:22:58;4.60;99.90
48162;DHT22;33950;48.154;16.316;2022-12-10T07:25:44;4.70;99.90
48162;DHT22;33950;48.154;16.316;2022-12-10T07:28:30;4.70;99.90
48162;DHT22;33950;48.154;16.316;2022-12-10T07:31:18;4.70;99.90
48162;DHT22;33950;48.154;16.316;2022-12-10T07:34:04;4.70;99.90
48162;DHT22;33950;48.154;16.316;2022-12-10T07:36:51;4.70;99.90
48162;DHT22;33950;48.154;16.316;2022-12-10T07:39:37;4.70;99.90
48162;DHT22;33950;48.154;16.316;2022-12-10T07:42:23;4.60;99.90
48162;DHT22;33950;48.154;16.316;2022-12-10T07:45:10;4.60;99.90
48162;DHT22;33950;48.154;16.316;2022-12-10T07:47:57;4.60;99.90
48162;DHT22;33950;48.154;16.316;2022-12-10T07:50:43;4.60;99.90
48162;DHT22;33950;48.154;16.316;2022-12-10T07:53:29;4.70;99.90
48162;DHT22;33950;48.154;16.316;2022-12-10T07:56:16;4.70;99.90
48162;DHT22;33950;48.154;16.316;2022-12-10T07:59:02;4.70;99.90
48162;DHT22;33950;48.154;16.316;2022-12-10T08:01:48;4.70;99.90
48162;DHT22;33950;48.154;16.316;2022-12-10T08:04:36;4.80;99.90
48162;DHT22;33950;48.154;16.316;2022-12-10T08:07:23;4.80;99.90
48162;DHT22;33950;48.154;16.316;2022-12-10T08:10:09;4.60;99.90
48162;DHT22;33950;48.154;16.316;2022-12-10T08:12:55;4.60;99.90
48162;DHT22;33950;48.154;16.316;2022-12-10T08:15:41;4.70;99.90
48162;DHT22;33950;48.154;16.316;2022-12-10T08:18:27;4.80;99.90
48162;DHT22;33950;48.154;16.316;2022-12-10T08:21:17;4.80;99.90
48162;DHT22;33950;48.154;16.316;2022-12-10T08:24:04;4.80;99.90
48162;DHT22;33950;48.154;16.316;2022-12-10T08:26:50;4.90;99.90
48162;DHT22;33950;48.154;16.316;2022-12-10T08:29:36;4.90;99.90
48162;DHT22;33950;48.154;16.316;2022-12-10T08:32:22;4.90;99.90
48162;DHT22;33950;48.154;16.316;2022-12-10T08:35:08;5.00;99.90
48162;DHT22;33950;48.154;16.316;2022-12-10T08:37:56;5.00;99.90
48162;DHT22;33950;48.154;16.316;2022-12-10T08:40:42;5.10;99.90
48162;DHT22;33950;48.154;16.316;2022-12-10T08:43:28;5.10;99.90
48162;DHT22;33950;48.154;16.316;2022-12-10T08:46:15;5.10;99.90
48162;DHT22;33950;48.154;16.316;2022-12-10T08:49:01;5.00;99.90
48162;DHT22;33950;48.154;16.316;2022-12-10T08:51:47;4.90;99.90
48162;DHT22;33950;48.154;16.316;2022-12-10T08:54:34;5.00;99.90
48162;DHT22;33950;48.154;16.316;2022-12-10T08:57:21;5.00;99.90
48162;DHT22;33950;48.154;16.316;2022-12-10T09:00:08;4.90;99.90
48162;DHT22;33950;48.154;16.316;2022-12-10T09:02:54;4.90;99.90
48162;DHT22;33950;48.154;16.316;2022-12-10T09:05:40;4.90;99.90
48162;DHT22;33950;48.154;16.316;2022-12-10T09:08:26;4.80;99.90
48162;DHT22;33950;48.154;16.316;2022-12-10T09:11:15;4.90;99.90
48162;DHT22;33950;48.154;16.316;2022-12-10T09:14:01;5.00;99.90
48162;DHT22;33950;48.154;16.316;2022-12-10T09:16:47;5.10;99.90
48162;DHT22;33950;48.154;16.316;2022-12-10T09:19:33;5.20;99.90
48162;DHT22;33950;48.154;16.316;2022-12-10T09:22:19;5.10;99.90
48162;DHT22;33950;48.154;16.316;2022-12-10T09:25:07;5.10;99.90
48162;DHT22;33950;48.154;16.316;2022-12-10T09:27:57;5.10;99.90
48162;DHT22;33950;48.154;16.316;2022-12-10T09:30:43;5.10;99.90
48162;DHT22;33950;48.154;16.316;2022-12-10T09:33:29;5.10;99.90
48162;DHT22;33950;48.154;16.316;2022-12-10T09:36:15;5.10;99.90
48162;DHT22;33950;48.154;16.316;2022-12-10T09:39:02;5.10;99.90
48162;DHT22;33950;48.154;16.316;2022-12-10T09:41:58;5.20;99.90
48162;DHT22;33950;48.154;16.316;2022-12-10T09:44:56;5.20;99.90
48162;DHT22;33950;48.154;16.316;2022-12-10T09:47:53;5.20;99.90
48162;DHT22;33950;48.154;16.316;2022-12-10T09:50:47;5.20;99.90
48162;DHT22;33950;48.154;16.316;2022-12-10T09:53:35;5.20;99.90
48162;DHT22;33950;48.154;16.316;2022-12-10T09:56:23;5.20;99.90
48162;DHT22;33950;48.154;16.316;2022-12-10T09:59:15;5.20;99.90
48162;DHT22;33950;48.154;16.316;2022-12-10T10:02:19;5.20;99.90
48162;DHT22;33950;48.154;16.316;2022-12-10T10:05:10;5.20;99.90
48162;DHT22;33950;48.154;16.316;2022-12-10T10:07:59;5.20;99.90
48162;DHT22;33950;48.154;16.316;2022-12-10T10:10:47;5.20;99.90
48162;DHT22;33950;48.154;16.316;2022-12-10T10:13:36;5.20;99.90
48162;DHT22;33950;48.154;16.316;2022-12-10T10:16:25;5.10;99.90
48162;DHT22;33950;48.154;16.316;2022-12-10T10:19:14;5.10;99.90
48162;DHT22;33950;48.154;16.316;2022-12-10T10:22:01;5.10;99.80
48162;DHT22;33950;48.154;16.316;2022-12-10T10:24:47;5.10;99.80
48162;DHT22;33950;48.154;16.316;2022-12-10T10:27:34;5.10;99.70
48162;DHT22;33950;48.154;16.316;2022-12-10T10:30:22;5.10;99.70
48162;DHT22;33950;48.154;16.316;2022-12-10T10:33:10;5.10;99.70
48162;DHT22;33950;48.154;16.316;2022-12-10T10:35:58;5.10;99.70
48162;DHT22;33950;48.154;16.316;2022-12-10T10:38:48;5.20;99.80
48162;DHT22;33950;48.154;16.316;2022-12-10T10:41:35;5.20;99.80
48162;DHT22;33950;48.154;16.316;2022-12-10T10:44:28;5.20;99.70
48162;DHT22;33950;48.154;16.316;2022-12-10T10:47:26;5.30;99.70
48162;DHT22;33950;48.154;16.316;2022-12-10T10:50:23;5.40;99.60
48162;DHT22;33950;48.154;16.316;2022-12-10T10:53:26;5.30;99.40
48162;DHT22;33950;48.154;16.316;2022-12-10T10:56:16;5.30;99.60
48162;DHT22;33950;48.154;16.316;2022-12-10T10:59:05;5.20;99.70
48162;DHT22;33950;48.154;16.316;2022-12-10T11:01:53;5.20;99.80
48162;DHT22;33950;48.154;16.316;2022-12-10T11:04:46;5.20;99.80
48162;DHT22;33950;48.154;16.316;2022-12-10T11:07:35;5.20;99.90
48162;DHT22;33950;48.154;16.316;2022-12-10T11:10:24;5.30;99.90
48162;DHT22;33950;48.154;16.316;2022-12-10T11:13:19;5.40;99.80
48162;DHT22;33950;48.154;16.316;2022-12-10T11:16:12;5.30;99.90
48162;DHT22;33950;48.154;16.316;2022-12-10T11:19:03;5.20;99.90
48162;DHT22;33950;48.154;16.316;2022-12-10T11:21:50;5.10;99.90
48162;DHT22;33950;48.154;16.316;2022-12-10T11:24:36;5.00;99.90
48162;DHT22;33950;48.154;16.316;2022-12-10T11:27:36;5.10;99.90
48162;DHT22;33950;48.154;16.316;2022-12-10T11:30:25;5.10;99.90
48162;DHT22;33950;48.154;16.316;2022-12-10T11:33:20;5.20;99.90
48162;DHT22;33950;48.154;16.316;2022-12-10T11:36:21;5.30;99.90
48162;DHT22;33950;48.154;16.316;2022-12-10T11:39:26;5.40;99.90
48162;DHT22;33950;48.154;16.316;2022-12-10T11:42:22;5.40;99.90
48162;DHT22;33950;48.154;16.316;2022-12-10T11:45:17;5.40;99.90
48162;DHT22;33950;48.154;16.316;2022-12-10T11:48:16;5.40;99.90
48162;DHT22;33950;48.154;16.316;2022-12-10T11:51:09;5.50;99.70
48162;DHT22;33950;48.154;16.316;2022-12-10T11:54:17;5.50;99.80
48162;DHT22;33950;48.154;16.316;2022-12-10T11:57:12;5.50;99.80
48162;DHT22;33950;48.154;16.316;2022-12-10T12:00:02;5.60;99.70
48162;DHT22;33950;48.154;16.316;2022-12-10T12:03:03;5.60;99.50
48162;DHT22;33950;48.154;16.316;2022-12-10T12:06:03;5.60;99.40
48162;DHT22;33950;48.154;16.316;2022-12-10T12:08:55;5.60;99.40
48162;DHT22;33950;48.154;16.316;2022-12-10T12:11:59;5.60;99.10
48162;DHT22;33950;48.154;16.316;2022-12-10T12:14:52;5.60;99.10
48162;DHT22;33950;48.154;16.316;2022-12-10T12:17:43;5.60;98.90
48162;DHT22;33950;48.154;16.316;2022-12-10T12:20:34;5.40;99.10
48162;DHT22;33950;48.154;16.316;2022-12-10T12:23:26;5.40;99.10
48162;DHT22;33950;48.154;16.316;2022-12-10T12:26:19;5.40;99.10
48162;DHT22;33950;48.154;16.316;2022-12-10T12:29:14;5.40;99.20
48162;DHT22;33950;48.154;16.316;2022-12-10T12:32:08;5.50;99.20
48162;DHT22;33950;48.154;16.316;2022-12-10T12:34:59;5.50;99.40
48162;DHT22;33950;48.154;16.316;2022-12-10T12:37:53;5.50;99.10
48162;DHT22;33950;48.154;16.316;2022-12-10T12:40:43;5.50;98.90
48162;DHT22;33950;48.154;16.316;2022-12-10T12:43:42;5.40;98.90
48162;DHT22;33950;48.154;16.316;2022-12-10T12:46:35;5.50;99.00
48162;DHT22;33950;48.154;16.316;2022-12-10T12:49:26;5.50;98.90
48162;DHT22;33950;48.154;16.316;2022-12-10T12:52:25;5.50;98.90
48162;DHT22;33950;48.154;16.316;2022-12-10T12:55:16;5.60;99.00
48162;DHT22;33950;48.154;16.316;2022-12-10T12:58:16;5.70;98.90
48162;DHT22;33950;48.154;16.316;2022-12-10T13:01:12;5.70;98.70
48162;DHT22;33950;48.154;16.316;2022-12-10T13:03:59;5.70;98.60
48162;DHT22;33950;48.154;16.316;2022-12-10T13:07:11;5.60;98.60
48162;DHT22;33950;48.154;16.316;2022-12-10T13:10:24;5.60;98.70
48162;DHT22;33950;48.154;16.316;2022-12-10T13:13:32;5.60;98.70
48162;DHT22;33950;48.154;16.316;2022-12-10T13:16:36;5.60;98.90
48162;DHT22;33950;48.154;16.316;2022-12-10T13:19:31;5.60;98.60
48162;DHT22;33950;48.154;16.316;2022-12-10T13:22:42;5.60;98.60
48162;DHT22;33950;48.154;16.316;2022-12-10T13:25:40;5.60;98.70
48162;DHT22;33950;48.154;16.316;2022-12-10T13:28:40;5.50;98.60
48162;DHT22;33950;48.154;16.316;2022-12-10T13:31:35;5.40;98.90
48162;DHT22;33950;48.154;16.316;2022-12-10T13:34:30;5.40;98.90
48162;DHT22;33950;48.154;16.316;2022-12-10T13:37:29;5.30;98.70
48162;DHT22;33950;48.154;16.316;2022-12-10T13:40:24;5.30;98.90
48162;DHT22;33950;48.154;16.316;2022-12-10T13:43:25;5.30;98.90
48162;DHT22;33950;48.154;16.316;2022-12-10T13:46:32;5.40;98.90
48162;DHT22;33950;48.154;16.316;2022-12-10T13:49:20;5.40;98.80
48162;DHT22;33950;48.154;16.316;2022-12-10T13:52:14;5.30;98.80
48162;DHT22;33950;48.154;16.316;2022-12-10T13:55:20;5.30;98.80
48162;DHT22;33950;48.154;16.316;2022-12-10T13:58:31;5.30;98.80
48162;DHT22;33950;48.154;16.316;2022-12-10T14:01:30;5.20;98.70
48162;DHT22;33950;48.154;16.316;2022-12-10T14:04:37;5.20;99.00
48162;DHT22;33950;48.154;16.316;2022-12-10T14:07:26;5.20;99.20
48162;DHT22;33950;48.154;16.316;2022-12-10T14:10:15;5.30;99.30
48162;DHT22;33950;48.154;16.316;2022-12-10T14:13:03;5.30;99.30
48162;DHT22;33950;48.154;16.316;2022-12-10T14:15:57;5.30;99.30
48162;DHT22;33950;48.154;16.316;2022-12-10T14:18:51;5.30;99.30
48162;DHT22;33950;48.154;16.316;2022-12-10T14:21:44;5.40;99.30
48162;DHT22;33950;48.154;16.316;2022-12-10T14:24:36;5.30;99.10
48162;DHT22;33950;48.154;16.316;2022-12-10T14:27:25;5.30;99.10
48162;DHT22;33950;48.154;16.316;2022-12-10T14:30:22;5.20;99.20
48162;DHT22;33950;48.154;16.316;2022-12-10T14:33:16;5.30;99.20
48162;DHT22;33950;48.154;16.316;2022-12-10T14:36:03;5.30;99.10
48162;DHT22;33950;48.154;16.316;2022-12-10T14:38:49;5.30;99.00
48162;DHT22;33950;48.154;16.316;2022-12-10T14:41:36;5.30;99.00
48162;DHT22;33950;48.154;16.316;2022-12-10T14:44:22;5.30;98.90
48162;DHT22;33950;48.154;16.316;2022-12-10T14:47:14;5.30;98.90
48162;DHT22;33950;48.154;16.316;2022-12-10T14:50:08;5.20;98.90
48162;DHT22;33950;48.154;16.316;2022-12-10T14:52:57;5.30;99.00
48162;DHT22;33950;48.154;16.316;2022-12-10T14:55:45;5.30;99.10
48162;DHT22;33950;48.154;16.316;2022-12-10T14:58:40;5.30;99.00
48162;DHT22;33950;48.154;16.316;2022-12-10T15:01:34;5.30;99.00
48162;DHT22;33950;48.154;16.316;2022-12-10T15:04:21;5.40;99.00
48162;DHT22;33950;48.154;16.316;2022-12-10T15:07:13;5.40;99.00
48162;DHT22;33950;48.154;16.316;2022-12-10T15:10:01;5.30;99.00
48162;DHT22;33950;48.154;16.316;2022-12-10T15:12:54;5.30;99.00
48162;DHT22;33950;48.154;16.316;2022-12-10T15:15:40;5.30;99.10
48162;DHT22;33950;48.154;16.316;2022-12-10T15:18:30;5.30;99.10
48162;DHT22;33950;48.154;16.316;2022-12-10T15:21:24;5.20;99.10
48162;DHT22;33950;48.154;16.316;2022-12-10T15:24:19;5.20;99.30
48162;DHT22;33950;48.154;16.316;2022-12-10T15:27:15;5.20;99.40
48162;DHT22;33950;48.154;16.316;2022-12-10T15:30:22;5.10;99.50
48162;DHT22;33950;48.154;16.316;2022-12-10T15:33:29;5.00;99.50
48162;DHT22;33950;48.154;16.316;2022-12-10T15:36:20;5.00;99.70
48162;DHT22;33950;48.154;16.316;2022-12-10T15:39:15;4.90;99.70
48162;DHT22;33950;48.154;16.316;2022-12-10T15:42:31;4.90;99.70
48162;DHT22;33950;48.154;16.316;2022-12-10T15:45:24;4.90;99.70
48162;DHT22;33950;48.154;16.316;2022-12-10T15:48:12;4.80;99.80
48162;DHT22;33950;48.154;16.316;2022-12-10T15:50:58;4.80;99.80
48162;DHT22;33950;48.154;16.316;2022-12-10T15:53:45;4.90;99.90
48162;DHT22;33950;48.154;16.316;2022-12-10T15:56:31;4.90;99.90
48162;DHT22;33950;48.154;16.316;2022-12-10T15:59:21;4.90;99.80
48162;DHT22;33950;48.154;16.316;2022-12-10T16:02:21;4.90;99.80
48162;DHT22;33950;48.154;16.316;2022-12-10T16:05:12;4.90;99.80
48162;DHT22;33950;48.154;16.316;2022-12-10T16:08:01;4.90;99.90
48162;DHT22;33950;48.154;16.316;2022-12-10T16:10:51;4.90;99.90
48162;DHT22;33950;48.154;16.316;2022-12-10T16:13:45;4.90;99.90
48162;DHT22;33950;48.154;16.316;2022-12-10T16:16:40;4.90;99.90
48162;DHT22;33950;48.154;16.316;2022-12-10T16:19:30;4.80;99.90
48162;DHT22;33950;48.154;16.316;2022-12-10T16:22:19;4.80;99.90
48162;DHT22;33950;48.154;16.316;2022-12-10T16:25:06;4.80;99.90
48162;DHT22;33950;48.154;16.316;2022-12-10T16:27:54;4.80;99.90
48162;DHT22;33950;48.154;16.316;2022-12-10T16:30:45;4.80;99.90
48162;DHT22;33950;48.154;16.316;2022-12-10T16:33:37;4.70;99.90
48162;DHT22;33950;48.154;16.316;2022-12-10T16:36:26;4.70;99.90
48162;DHT22;33950;48.154;16.316;2022-12-10T16:39:12;4.70;99.90
48162;DHT22;33950;48.154;16.316;2022-12-10T16:42:00;4.60;99.90
48162;DHT22;33950;48.154;16.316;2022-12-10T16:44:46;4.60;99.90
48162;DHT22;33950;48.154;16.316;2022-12-10T16:47:35;4.60;99.90
48162;DHT22;33950;48.154;16.316;2022-12-10T16:50:26;4.70;99.90
48162;DHT22;33950;48.154;16.316;2022-12-10T16:53:16;4.70;99.90
48162;DHT22;33950;48.154;16.316;2022-12-10T16:56:09;4.70;99.90
48162;DHT22;33950;48.154;16.316;2022-12-10T16:58:56;4.60;99.90
48162;DHT22;33950;48.154;16.316;2022-12-10T17:01:42;4.70;99.90
48162;DHT22;33950;48.154;16.316;2022-12-10T17:04:32;4.60;99.90
48162;DHT22;33950;48.154;16.316;2022-12-10T17:07:20;4.60;99.90
48162;DHT22;33950;48.154;16.316;2022-12-10T17:10:06;4.60;99.90
48162;DHT22;33950;48.154;16.316;2022-12-10T17:13:01;4.60;99.90
48162;DHT22;33950;48.154;16.316;2022-12-10T17:15:50;4.50;99.90
48162;DHT22;33950;48.154;16.316;2022-12-10T17:18:36;4.60;99.90
48162;DHT22;33950;48.154;16.316;2022-12-10T17:21:26;4.60;99.90
48162;DHT22;33950;48.154;16.316;2022-12-10T17:24:14;4.70;99.90
48162;DHT22;33950;48.154;16.316;2022-12-10T17:27:06;4.70;99.90
48162;DHT22;33950;48.154;16.316;2022-12-10T17:29:56;4.70;99.90
48162;DHT22;33950;48.154;16.316;2022-12-10T17:32:45;4.70;99.90
48162;DHT22;33950;48.154;16.316;2022-12-10T17:35:32;4.70;99.90
48162;DHT22;33950;48.154;16.316;2022-12-10T17:38:19;4.70;99.90
48162;DHT22;33950;48.154;16.316;2022-12-10T17:41:09;4.70;99.90
48162;DHT22;33950;48.154;16.316;2022-12-10T17:43:56;4.70;99.90
48162;DHT22;33950;48.154;16.316;2022-12-10T17:46:42;4.70;99.90
48162;DHT22;33950;48.154;16.316;2022-12-10T17:49:31;4.70;99.90
48162;DHT22;33950;48.154;16.316;2022-12-10T17:52:21;4.60;99.90
48162;DHT22;33950;48.154;16.316;2022-12-10T17:55:07;4.60;99.90